Altdorf, Wisconsin
Current Conditions -  °F | °C
As of 4:54 AM on Monday 20 Oct 2014 (Local Time) from KISW Reporting Station
Clear Clear  
Wind Chill: 42°   Ceiling: Unl
Heat Index: 46°   Visibility: 10mi
Dew Point: 42°   Wind: 8mph
Humidity: 86%   Direction: 340°NNW
Pressure: 29.82"   Gusts: NA
Location:  44.4583°N, 90.0009°W
Report Text: KISW 200954Z AUTO 34007KT 10SM CLR 08/06 A2982 RMK AO2 SLP101 T00780056 $
Loading
Personal Weather Stations






























Interactive Weather Map New forecast layout! Learn more

10-Day Weather Forecast

Advertisements
Track Severe Weather on mobile